sensor_id;sensor_type;location;lat;lon;timestamp;P1;durP1;ratioP1;P2;durP2;ratioP2
28245;SDS011;15510;52.512;13.300;2023-03-08T00:00:14;3.83;;;1.30;;
28245;SDS011;15510;52.512;13.300;2023-03-08T00:02:41;6.27;;;1.70;;
28245;SDS011;15510;52.512;13.300;2023-03-08T00:05:08;3.97;;;1.80;;
28245;SDS011;15510;52.512;13.300;2023-03-08T00:07:34;3.20;;;1.40;;
28245;SDS011;15510;52.512;13.300;2023-03-08T00:10:00;4.30;;;2.20;;
28245;SDS011;15510;52.512;13.300;2023-03-08T00:12:26;4.63;;;1.90;;
28245;SDS011;15510;52.512;13.300;2023-03-08T00:14:52;1.70;;;1.57;;
28245;SDS011;15510;52.512;13.300;2023-03-08T00:17:18;5.60;;;2.00;;
28245;SDS011;15510;52.512;13.300;2023-03-08T00:19:44;3.33;;;1.80;;
28245;SDS011;15510;52.512;13.300;2023-03-08T00:22:10;8.87;;;2.03;;
28245;SDS011;15510;52.512;13.300;2023-03-08T00:24:36;6.70;;;2.07;;
28245;SDS011;15510;52.512;13.300;2023-03-08T00:27:02;5.67;;;2.00;;
28245;SDS011;15510;52.512;13.300;2023-03-08T00:29:29;2.47;;;1.60;;
28245;SDS011;15510;52.512;13.300;2023-03-08T00:31:55;2.93;;;1.97;;
28245;SDS011;15510;52.512;13.300;2023-03-08T00:34:21;4.43;;;1.80;;
28245;SDS011;15510;52.512;13.300;2023-03-08T00:36:47;3.80;;;2.03;;
28245;SDS011;15510;52.512;13.300;2023-03-08T00:39:16;3.17;;;1.60;;
28245;SDS011;15510;52.512;13.300;2023-03-08T00:41:41;7.10;;;2.23;;
28245;SDS011;15510;52.512;13.300;2023-03-08T00:44:07;6.37;;;2.63;;
28245;SDS011;15510;52.512;13.300;2023-03-08T00:46:33;5.77;;;2.00;;
28245;SDS011;15510;52.512;13.300;2023-03-08T00:48:59;5.60;;;2.20;;
28245;SDS011;15510;52.512;13.300;2023-03-08T00:51:24;3.83;;;2.00;;
28245;SDS011;15510;52.512;13.300;2023-03-08T00:53:51;4.67;;;2.03;;
28245;SDS011;15510;52.512;13.300;2023-03-08T00:56:17;9.73;;;2.10;;
28245;SDS011;15510;52.512;13.300;2023-03-08T00:58:43;5.17;;;2.33;;
28245;SDS011;15510;52.512;13.300;2023-03-08T01:01:11;5.53;;;2.43;;
28245;SDS011;15510;52.512;13.300;2023-03-08T01:03:39;6.13;;;2.73;;
28245;SDS011;15510;52.512;13.300;2023-03-08T01:06:06;7.43;;;2.73;;
28245;SDS011;15510;52.512;13.300;2023-03-08T01:08:34;2.90;;;1.93;;
28245;SDS011;15510;52.512;13.300;2023-03-08T01:11:00;6.07;;;2.87;;
28245;SDS011;15510;52.512;13.300;2023-03-08T01:13:31;2.70;;;2.30;;
28245;SDS011;15510;52.512;13.300;2023-03-08T01:15:59;5.10;;;2.63;;
28245;SDS011;15510;52.512;13.300;2023-03-08T01:18:26;3.07;;;2.60;;
28245;SDS011;15510;52.512;13.300;2023-03-08T01:20:59;3.37;;;2.77;;
28245;SDS011;15510;52.512;13.300;2023-03-08T01:23:28;7.37;;;3.23;;
28245;SDS011;15510;52.512;13.300;2023-03-08T01:26:01;5.67;;;2.97;;
28245;SDS011;15510;52.512;13.300;2023-03-08T01:28:36;6.10;;;3.37;;
28245;SDS011;15510;52.512;13.300;2023-03-08T01:31:03;5.27;;;3.20;;
28245;SDS011;15510;52.512;13.300;2023-03-08T01:33:31;7.37;;;3.17;;
28245;SDS011;15510;52.512;13.300;2023-03-08T01:35:57;9.77;;;4.00;;
28245;SDS011;15510;52.512;13.300;2023-03-08T01:38:23;4.73;;;3.70;;
28245;SDS011;15510;52.512;13.300;2023-03-08T01:40:54;4.73;;;3.30;;
28245;SDS011;15510;52.512;13.300;2023-03-08T01:43:25;6.50;;;3.80;;
28245;SDS011;15510;52.512;13.300;2023-03-08T01:46:22;5.37;;;3.93;;
28245;SDS011;15510;52.512;13.300;2023-03-08T01:51:35;7.57;;;4.03;;
28245;SDS011;15510;52.512;13.300;2023-03-08T01:54:23;8.40;;;4.27;;
28245;SDS011;15510;52.512;13.300;2023-03-08T01:56:57;10.00;;;4.47;;
28245;SDS011;15510;52.512;13.300;2023-03-08T01:59:30;10.07;;;4.33;;
28245;SDS011;15510;52.512;13.300;2023-03-08T02:01:57;7.70;;;4.43;;
28245;SDS011;15510;52.512;13.300;2023-03-08T02:04:24;6.07;;;4.43;;
28245;SDS011;15510;52.512;13.300;2023-03-08T02:06:51;6.30;;;4.10;;
28245;SDS011;15510;52.512;13.300;2023-03-08T02:09:20;10.93;;;5.47;;
28245;SDS011;15510;52.512;13.300;2023-03-08T02:11:46;7.87;;;5.07;;
28245;SDS011;15510;52.512;13.300;2023-03-08T02:14:13;9.20;;;5.10;;
28245;SDS011;15510;52.512;13.300;2023-03-08T02:16:42;7.67;;;4.93;;
28245;SDS011;15510;52.512;13.300;2023-03-08T02:19:13;8.70;;;5.30;;
28245;SDS011;15510;52.512;13.300;2023-03-08T02:21:46;8.10;;;5.27;;
28245;SDS011;15510;52.512;13.300;2023-03-08T02:24:19;10.90;;;6.40;;
28245;SDS011;15510;52.512;13.300;2023-03-08T02:26:46;8.27;;;5.77;;
28245;SDS011;15510;52.512;13.300;2023-03-08T02:29:13;7.87;;;5.80;;
28245;SDS011;15510;52.512;13.300;2023-03-08T02:31:39;12.27;;;6.37;;
28245;SDS011;15510;52.512;13.300;2023-03-08T02:34:05;10.20;;;6.00;;
28245;SDS011;15510;52.512;13.300;2023-03-08T02:36:30;13.20;;;6.73;;
28245;SDS011;15510;52.512;13.300;2023-03-08T02:38:56;15.63;;;6.93;;
28245;SDS011;15510;52.512;13.300;2023-03-08T02:41:22;10.03;;;6.53;;
28245;SDS011;15510;52.512;13.300;2023-03-08T02:43:48;9.87;;;6.23;;
28245;SDS011;15510;52.512;13.300;2023-03-08T02:46:13;12.83;;;7.57;;
28245;SDS011;15510;52.512;13.300;2023-03-08T02:48:39;9.70;;;7.23;;
28245;SDS011;15510;52.512;13.300;2023-03-08T02:51:05;11.17;;;6.93;;
28245;SDS011;15510;52.512;13.300;2023-03-08T02:53:33;11.87;;;6.90;;
28245;SDS011;15510;52.512;13.300;2023-03-08T02:55:59;9.57;;;7.37;;
28245;SDS011;15510;52.512;13.300;2023-03-08T02:58:25;12.43;;;6.97;;
28245;SDS011;15510;52.512;13.300;2023-03-08T03:00:51;17.63;;;8.47;;
28245;SDS011;15510;52.512;13.300;2023-03-08T03:03:16;13.63;;;8.03;;
28245;SDS011;15510;52.512;13.300;2023-03-08T03:05:42;10.87;;;7.80;;
28245;SDS011;15510;52.512;13.300;2023-03-08T03:08:12;12.20;;;7.47;;
28245;SDS011;15510;52.512;13.300;2023-03-08T03:10:38;10.47;;;7.07;;
28245;SDS011;15510;52.512;13.300;2023-03-08T03:13:04;15.83;;;7.47;;
28245;SDS011;15510;52.512;13.300;2023-03-08T03:15:31;9.93;;;7.60;;
28245;SDS011;15510;52.512;13.300;2023-03-08T03:17:58;10.17;;;7.60;;
28245;SDS011;15510;52.512;13.300;2023-03-08T03:20:24;11.37;;;7.90;;
28245;SDS011;15510;52.512;13.300;2023-03-08T03:22:50;13.63;;;8.20;;
28245;SDS011;15510;52.512;13.300;2023-03-08T03:25:19;13.67;;;7.87;;
28245;SDS011;15510;52.512;13.300;2023-03-08T03:27:46;15.77;;;7.53;;
28245;SDS011;15510;52.512;13.300;2023-03-08T03:30:13;14.93;;;8.30;;
28245;SDS011;15510;52.512;13.300;2023-03-08T03:32:40;16.30;;;8.77;;
28245;SDS011;15510;52.512;13.300;2023-03-08T03:35:06;16.07;;;7.73;;
28245;SDS011;15510;52.512;13.300;2023-03-08T03:37:33;12.70;;;7.93;;
28245;SDS011;15510;52.512;13.300;2023-03-08T03:40:01;10.20;;;7.63;;
28245;SDS011;15510;52.512;13.300;2023-03-08T03:42:28;11.67;;;8.10;;
28245;SDS011;15510;52.512;13.300;2023-03-08T03:45:03;11.70;;;7.37;;
28245;SDS011;15510;52.512;13.300;2023-03-08T03:47:29;10.67;;;7.70;;
28245;SDS011;15510;52.512;13.300;2023-03-08T03:49:58;13.20;;;8.40;;
28245;SDS011;15510;52.512;13.300;2023-03-08T03:52:28;11.10;;;7.90;;
28245;SDS011;15510;52.512;13.300;2023-03-08T03:54:59;12.90;;;7.63;;
28245;SDS011;15510;52.512;13.300;2023-03-08T03:57:25;15.10;;;8.40;;
28245;SDS011;15510;52.512;13.300;2023-03-08T03:59:52;12.03;;;8.23;;
28245;SDS011;15510;52.512;13.300;2023-03-08T04:02:21;13.23;;;7.57;;
28245;SDS011;15510;52.512;13.300;2023-03-08T04:04:52;11.10;;;7.83;;
28245;SDS011;15510;52.512;13.300;2023-03-08T04:07:22;9.77;;;7.53;;
28245;SDS011;15510;52.512;13.300;2023-03-08T04:09:54;13.53;;;8.17;;
28245;SDS011;15510;52.512;13.300;2023-03-08T04:12:20;12.23;;;7.47;;
28245;SDS011;15510;52.512;13.300;2023-03-08T04:14:46;15.83;;;8.10;;
28245;SDS011;15510;52.512;13.300;2023-03-08T04:17:12;11.13;;;7.83;;
28245;SDS011;15510;52.512;13.300;2023-03-08T04:19:43;10.20;;;7.13;;
28245;SDS011;15510;52.512;13.300;2023-03-08T04:22:10;10.27;;;7.40;;
28245;SDS011;15510;52.512;13.300;2023-03-08T04:24:47;15.97;;;8.13;;
28245;SDS011;15510;52.512;13.300;2023-03-08T04:27:18;9.97;;;6.77;;
28245;SDS011;15510;52.512;13.300;2023-03-08T04:29:44;12.90;;;8.17;;
28245;SDS011;15510;52.512;13.300;2023-03-08T04:32:10;9.77;;;7.43;;
28245;SDS011;15510;52.512;13.300;2023-03-08T04:34:44;15.97;;;7.70;;
28245;SDS011;15510;52.512;13.300;2023-03-08T04:37:13;14.73;;;7.33;;
28245;SDS011;15510;52.512;13.300;2023-03-08T04:39:41;11.17;;;7.20;;
28245;SDS011;15510;52.512;13.300;2023-03-08T04:42:08;12.23;;;8.37;;
28245;SDS011;15510;52.512;13.300;2023-03-08T04:44:34;11.90;;;7.20;;
28245;SDS011;15510;52.512;13.300;2023-03-08T04:47:02;9.43;;;7.87;;
28245;SDS011;15510;52.512;13.300;2023-03-08T04:49:35;10.97;;;7.57;;
28245;SDS011;15510;52.512;13.300;2023-03-08T04:52:02;11.33;;;7.27;;
28245;SDS011;15510;52.512;13.300;2023-03-08T04:54:29;13.87;;;7.30;;
28245;SDS011;15510;52.512;13.300;2023-03-08T04:57:00;10.83;;;7.27;;
28245;SDS011;15510;52.512;13.300;2023-03-08T04:59:27;8.63;;;7.30;;
28245;SDS011;15510;52.512;13.300;2023-03-08T05:01:56;10.97;;;7.60;;
28245;SDS011;15510;52.512;13.300;2023-03-08T05:06:56;15.60;;;8.10;;
28245;SDS011;15510;52.512;13.300;2023-03-08T05:09:25;9.83;;;7.23;;
28245;SDS011;15510;52.512;13.300;2023-03-08T05:11:52;11.77;;;7.40;;
28245;SDS011;15510;52.512;13.300;2023-03-08T05:14:19;12.57;;;8.03;;
28245;SDS011;15510;52.512;13.300;2023-03-08T05:16:46;10.77;;;7.87;;
28245;SDS011;15510;52.512;13.300;2023-03-08T05:19:12;11.30;;;7.40;;
28245;SDS011;15510;52.512;13.300;2023-03-08T05:21:45;11.03;;;7.77;;
28245;SDS011;15510;52.512;13.300;2023-03-08T05:24:12;10.80;;;7.20;;
28245;SDS011;15510;52.512;13.300;2023-03-08T05:26:38;10.57;;;6.93;;
28245;SDS011;15510;52.512;13.300;2023-03-08T05:29:04;9.70;;;7.93;;
28245;SDS011;15510;52.512;13.300;2023-03-08T05:31:31;11.87;;;7.87;;
28245;SDS011;15510;52.512;13.300;2023-03-08T05:34:01;10.23;;;7.50;;
28245;SDS011;15510;52.512;13.300;2023-03-08T05:36:33;9.87;;;7.73;;
28245;SDS011;15510;52.512;13.300;2023-03-08T05:39:00;12.57;;;8.10;;
28245;SDS011;15510;52.512;13.300;2023-03-08T05:41:34;13.87;;;7.80;;
28245;SDS011;15510;52.512;13.300;2023-03-08T05:44:00;11.03;;;8.40;;
28245;SDS011;15510;52.512;13.300;2023-03-08T05:46:29;12.50;;;7.47;;
28245;SDS011;15510;52.512;13.300;2023-03-08T05:48:55;13.50;;;8.03;;
28245;SDS011;15510;52.512;13.300;2023-03-08T05:51:21;16.17;;;8.23;;
28245;SDS011;15510;52.512;13.300;2023-03-08T05:53:47;12.57;;;8.10;;
28245;SDS011;15510;52.512;13.300;2023-03-08T05:56:16;13.67;;;6.73;;
28245;SDS011;15510;52.512;13.300;2023-03-08T05:59:02;15.43;;;9.00;;
28245;SDS011;15510;52.512;13.300;2023-03-08T06:01:29;10.83;;;7.70;;
28245;SDS011;15510;52.512;13.300;2023-03-08T06:04:04;12.23;;;7.47;;
28245;SDS011;15510;52.512;13.300;2023-03-08T06:06:33;10.50;;;7.37;;
28245;SDS011;15510;52.512;13.300;2023-03-08T06:09:02;11.30;;;8.20;;
28245;SDS011;15510;52.512;13.300;2023-03-08T06:11:29;13.40;;;8.70;;
28245;SDS011;15510;52.512;13.300;2023-03-08T06:13:57;10.10;;;7.37;;
28245;SDS011;15510;52.512;13.300;2023-03-08T06:16:26;10.70;;;8.40;;
28245;SDS011;15510;52.512;13.300;2023-03-08T06:18:52;11.73;;;7.30;;
28245;SDS011;15510;52.512;13.300;2023-03-08T06:21:18;11.23;;;7.90;;
28245;SDS011;15510;52.512;13.300;2023-03-08T06:23:49;10.10;;;7.90;;
28245;SDS011;15510;52.512;13.300;2023-03-08T06:26:16;23.43;;;16.00;;
28245;SDS011;15510;52.512;13.300;2023-03-08T06:28:43;15.10;;;9.27;;
28245;SDS011;15510;52.512;13.300;2023-03-08T06:31:11;10.90;;;8.20;;
28245;SDS011;15510;52.512;13.300;2023-03-08T06:33:39;11.80;;;7.80;;
28245;SDS011;15510;52.512;13.300;2023-03-08T06:36:08;10.57;;;8.40;;
28245;SDS011;15510;52.512;13.300;2023-03-08T06:38:36;10.83;;;8.60;;
28245;SDS011;15510;52.512;13.300;2023-03-08T06:41:04;10.43;;;7.53;;
28245;SDS011;15510;52.512;13.300;2023-03-08T06:43:33;13.60;;;7.97;;
28245;SDS011;15510;52.512;13.300;2023-03-08T06:46:06;13.23;;;7.60;;
28245;SDS011;15510;52.512;13.300;2023-03-08T06:48:37;10.07;;;7.93;;
28245;SDS011;15510;52.512;13.300;2023-03-08T06:51:03;9.97;;;8.33;;
28245;SDS011;15510;52.512;13.300;2023-03-08T06:53:31;11.40;;;8.07;;
28245;SDS011;15510;52.512;13.300;2023-03-08T06:56:02;9.97;;;7.63;;
28245;SDS011;15510;52.512;13.300;2023-03-08T06:58:31;12.20;;;7.70;;
28245;SDS011;15510;52.512;13.300;2023-03-08T07:00:58;10.83;;;7.37;;
28245;SDS011;15510;52.512;13.300;2023-03-08T07:03:24;8.80;;;7.10;;
28245;SDS011;15510;52.512;13.300;2023-03-08T07:05:51;11.70;;;7.57;;
28245;SDS011;15510;52.512;13.300;2023-03-08T07:08:16;10.37;;;7.93;;
28245;SDS011;15510;52.512;13.300;2023-03-08T07:10:42;12.07;;;7.87;;
28245;SDS011;15510;52.512;13.300;2023-03-08T07:13:08;13.70;;;7.40;;
28245;SDS011;15510;52.512;13.300;2023-03-08T07:15:37;10.57;;;7.27;;
28245;SDS011;15510;52.512;13.300;2023-03-08T07:18:04;10.23;;;7.30;;
28245;SDS011;15510;52.512;13.300;2023-03-08T07:20:30;9.17;;;7.47;;
28245;SDS011;15510;52.512;13.300;2023-03-08T07:22:56;12.37;;;7.07;;
28245;SDS011;15510;52.512;13.300;2023-03-08T07:25:25;10.60;;;7.60;;
28245;SDS011;15510;52.512;13.300;2023-03-08T07:27:51;14.63;;;7.43;;
28245;SDS011;15510;52.512;13.300;2023-03-08T07:30:17;7.37;;;6.53;;
28245;SDS011;15510;52.512;13.300;2023-03-08T07:32:42;10.67;;;7.30;;
28245;SDS011;15510;52.512;13.300;2023-03-08T07:35:10;10.73;;;7.83;;
28245;SDS011;15510;52.512;13.300;2023-03-08T07:37:37;10.70;;;7.10;;
28245;SDS011;15510;52.512;13.300;2023-03-08T07:40:03;10.40;;;6.97;;
28245;SDS011;15510;52.512;13.300;2023-03-08T07:42:33;9.60;;;7.03;;
28245;SDS011;15510;52.512;13.300;2023-03-08T07:45:10;10.30;;;7.10;;
28245;SDS011;15510;52.512;13.300;2023-03-08T07:47:36;13.70;;;7.37;;
28245;SDS011;15510;52.512;13.300;2023-03-08T07:50:02;9.63;;;7.50;;
28245;SDS011;15510;52.512;13.300;2023-03-08T07:52:29;9.63;;;6.97;;
28245;SDS011;15510;52.512;13.300;2023-03-08T07:54:55;9.27;;;7.23;;
28245;SDS011;15510;52.512;13.300;2023-03-08T07:57:21;10.27;;;7.57;;
28245;SDS011;15510;52.512;13.300;2023-03-08T07:59:48;9.13;;;7.43;;
28245;SDS011;15510;52.512;13.300;2023-03-08T08:02:15;8.90;;;6.97;;
28245;SDS011;15510;52.512;13.300;2023-03-08T08:04:41;9.13;;;6.97;;
28245;SDS011;15510;52.512;13.300;2023-03-08T08:07:10;9.00;;;6.60;;
28245;SDS011;15510;52.512;13.300;2023-03-08T08:09:37;9.73;;;6.93;;
28245;SDS011;15510;52.512;13.300;2023-03-08T08:12:03;9.37;;;7.00;;
28245;SDS011;15510;52.512;13.300;2023-03-08T08:14:30;10.23;;;7.63;;
28245;SDS011;15510;52.512;13.300;2023-03-08T08:16:56;8.63;;;6.87;;
28245;SDS011;15510;52.512;13.300;2023-03-08T08:19:22;9.53;;;6.87;;
28245;SDS011;15510;52.512;13.300;2023-03-08T08:21:48;8.73;;;6.77;;
28245;SDS011;15510;52.512;13.300;2023-03-08T08:24:14;7.37;;;6.57;;
28245;SDS011;15510;52.512;13.300;2023-03-08T08:26:39;8.40;;;6.40;;
28245;SDS011;15510;52.512;13.300;2023-03-08T08:29:05;9.73;;;5.80;;
28245;SDS011;15510;52.512;13.300;2023-03-08T08:31:31;7.63;;;6.23;;
28245;SDS011;15510;52.512;13.300;2023-03-08T08:33:58;6.90;;;5.40;;
28245;SDS011;15510;52.512;13.300;2023-03-08T08:36:24;8.20;;;5.70;;
28245;SDS011;15510;52.512;13.300;2023-03-08T08:38:50;6.83;;;6.13;;
28245;SDS011;15510;52.512;13.300;2023-03-08T08:41:17;8.90;;;6.27;;
28245;SDS011;15510;52.512;13.300;2023-03-08T08:43:44;8.73;;;5.63;;
28245;SDS011;15510;52.512;13.300;2023-03-08T08:46:11;10.93;;;6.47;;
28245;SDS011;15510;52.512;13.300;2023-03-08T08:48:38;7.93;;;5.87;;
28245;SDS011;15510;52.512;13.300;2023-03-08T08:51:05;5.83;;;5.23;;
28245;SDS011;15510;52.512;13.300;2023-03-08T08:53:33;9.07;;;5.57;;
28245;SDS011;15510;52.512;13.300;2023-03-08T08:56:08;7.23;;;5.30;;
28245;SDS011;15510;52.512;13.300;2023-03-08T08:58:35;6.27;;;5.30;;
28245;SDS011;15510;52.512;13.300;2023-03-08T09:01:01;8.67;;;5.67;;
28245;SDS011;15510;52.512;13.300;2023-03-08T09:03:27;5.93;;;5.07;;
28245;SDS011;15510;52.512;13.300;2023-03-08T09:05:52;4.70;;;4.20;;
28245;SDS011;15510;52.512;13.300;2023-03-08T09:08:18;6.20;;;4.37;;
28245;SDS011;15510;52.512;13.300;2023-03-08T09:10:44;5.30;;;4.30;;
28245;SDS011;15510;52.512;13.300;2023-03-08T09:13:10;4.67;;;3.73;;
28245;SDS011;15510;52.512;13.300;2023-03-08T09:15:36;4.83;;;3.93;;
28245;SDS011;15510;52.512;13.300;2023-03-08T09:18:02;6.97;;;3.53;;
28245;SDS011;15510;52.512;13.300;2023-03-08T09:20:29;3.90;;;2.77;;
28245;SDS011;15510;52.512;13.300;2023-03-08T09:22:55;3.00;;;2.63;;
28245;SDS011;15510;52.512;13.300;2023-03-08T09:25:21;3.50;;;3.00;;
28245;SDS011;15510;52.512;13.300;2023-03-08T09:27:48;3.63;;;3.00;;
28245;SDS011;15510;52.512;13.300;2023-03-08T09:30:15;3.70;;;3.40;;
28245;SDS011;15510;52.512;13.300;2023-03-08T09:32:41;4.57;;;3.20;;
28245;SDS011;15510;52.512;13.300;2023-03-08T09:35:07;4.40;;;3.20;;
28245;SDS011;15510;52.512;13.300;2023-03-08T09:37:34;4.50;;;2.87;;
28245;SDS011;15510;52.512;13.300;2023-03-08T09:40:00;5.10;;;3.40;;
28245;SDS011;15510;52.512;13.300;2023-03-08T09:42:33;6.20;;;3.00;;
28245;SDS011;15510;52.512;13.300;2023-03-08T09:45:21;3.50;;;2.70;;
28245;SDS011;15510;52.512;13.300;2023-03-08T09:47:59;5.27;;;2.90;;
28245;SDS011;15510;52.512;13.300;2023-03-08T09:53:03;3.23;;;2.50;;
28245;SDS011;15510;52.512;13.300;2023-03-08T09:55:33;3.20;;;2.90;;
28245;SDS011;15510;52.512;13.300;2023-03-08T09:58:13;3.47;;;2.47;;
28245;SDS011;15510;52.512;13.300;2023-03-08T10:00:40;2.77;;;2.40;;
28245;SDS011;15510;52.512;13.300;2023-03-08T10:08:52;2.87;;;2.33;;
28245;SDS011;15510;52.512;13.300;2023-03-08T10:11:48;4.60;;;2.87;;
28245;SDS011;15510;52.512;13.300;2023-03-08T10:14:19;2.70;;;2.30;;
28245;SDS011;15510;52.512;13.300;2023-03-08T10:16:55;2.83;;;2.50;;
28245;SDS011;15510;52.512;13.300;2023-03-08T10:19:30;3.00;;;2.30;;
28245;SDS011;15510;52.512;13.300;2023-03-08T10:22:04;3.77;;;2.83;;
28245;SDS011;15510;52.512;13.300;2023-03-08T10:24:48;5.00;;;3.10;;
28245;SDS011;15510;52.512;13.300;2023-03-08T10:27:26;6.13;;;2.60;;
28245;SDS011;15510;52.512;13.300;2023-03-08T10:29:57;4.20;;;2.53;;
28245;SDS011;15510;52.512;13.300;2023-03-08T10:32:25;3.90;;;2.87;;
28245;SDS011;15510;52.512;13.300;2023-03-08T10:34:52;3.73;;;3.07;;
28245;SDS011;15510;52.512;13.300;2023-03-08T10:37:28;3.43;;;2.60;;
28245;SDS011;15510;52.512;13.300;2023-03-08T10:39:56;6.90;;;2.53;;
28245;SDS011;15510;52.512;13.300;2023-03-08T10:42:27;2.30;;;2.10;;
28245;SDS011;15510;52.512;13.300;2023-03-08T10:47:38;2.63;;;2.40;;
28245;SDS011;15510;52.512;13.300;2023-03-08T10:52:42;3.60;;;2.00;;
28245;SDS011;15510;52.512;13.300;2023-03-08T10:55:13;4.70;;;2.80;;
28245;SDS011;15510;52.512;13.300;2023-03-08T10:57:42;11.67;;;2.70;;
28245;SDS011;15510;52.512;13.300;2023-03-08T11:02:43;3.20;;;2.90;;
28245;SDS011;15510;52.512;13.300;2023-03-08T11:05:16;3.40;;;2.73;;
28245;SDS011;15510;52.512;13.300;2023-03-08T11:07:55;3.43;;;2.60;;
28245;SDS011;15510;52.512;13.300;2023-03-08T11:10:24;4.60;;;3.70;;
28245;SDS011;15510;52.512;13.300;2023-03-08T11:13:00;3.07;;;2.87;;
28245;SDS011;15510;52.512;13.300;2023-03-08T11:15:30;6.80;;;3.37;;
28245;SDS011;15510;52.512;13.300;2023-03-08T11:18:16;4.73;;;2.87;;
28245;SDS011;15510;52.512;13.300;2023-03-08T11:21:09;4.13;;;3.40;;
28245;SDS011;15510;52.512;13.300;2023-03-08T11:23:45;3.93;;;3.10;;
28245;SDS011;15510;52.512;13.300;2023-03-08T11:26:33;2.80;;;2.60;;
28245;SDS011;15510;52.512;13.300;2023-03-08T11:29:22;3.50;;;2.87;;
28245;SDS011;15510;52.512;13.300;2023-03-08T11:32:26;6.13;;;3.00;;
28245;SDS011;15510;52.512;13.300;2023-03-08T11:37:53;4.57;;;3.10;;
28245;SDS011;15510;52.512;13.300;2023-03-08T11:40:25;4.33;;;2.70;;
28245;SDS011;15510;52.512;13.300;2023-03-08T11:43:43;5.20;;;3.20;;
28245;SDS011;15510;52.512;13.300;2023-03-08T11:51:49;3.60;;;2.20;;
28245;SDS011;15510;52.512;13.300;2023-03-08T11:56:57;5.60;;;2.67;;
28245;SDS011;15510;52.512;13.300;2023-03-08T12:01:59;3.87;;;2.37;;
28245;SDS011;15510;52.512;13.300;2023-03-08T12:04:29;2.60;;;2.20;;
28245;SDS011;15510;52.512;13.300;2023-03-08T12:07:01;2.87;;;2.67;;
28245;SDS011;15510;52.512;13.300;2023-03-08T12:09:32;3.53;;;2.20;;
28245;SDS011;15510;52.512;13.300;2023-03-08T12:12:05;3.07;;;2.50;;
28245;SDS011;15510;52.512;13.300;2023-03-08T12:17:27;4.87;;;2.60;;
28245;SDS011;15510;52.512;13.300;2023-03-08T12:19:58;2.80;;;2.60;;
28245;SDS011;15510;52.512;13.300;2023-03-08T12:25:21;2.67;;;2.03;;
28245;SDS011;15510;52.512;13.300;2023-03-08T12:28:01;3.70;;;2.87;;
28245;SDS011;15510;52.512;13.300;2023-03-08T12:33:50;3.20;;;2.70;;
28245;SDS011;15510;52.512;13.300;2023-03-08T12:36:19;5.63;;;2.43;;
28245;SDS011;15510;52.512;13.300;2023-03-08T12:38:49;2.90;;;2.70;;
28245;SDS011;15510;52.512;13.300;2023-03-08T12:44:04;3.57;;;3.07;;
28245;SDS011;15510;52.512;13.300;2023-03-08T12:46:47;4.63;;;4.10;;
28245;SDS011;15510;52.512;13.300;2023-03-08T12:49:39;4.37;;;3.13;;
28245;SDS011;15510;52.512;13.300;2023-03-08T12:54:53;4.50;;;3.83;;
28245;SDS011;15510;52.512;13.300;2023-03-08T12:57:21;8.63;;;3.07;;
28245;SDS011;15510;52.512;13.300;2023-03-08T12:59:57;4.17;;;2.93;;
28245;SDS011;15510;52.512;13.300;2023-03-08T13:02:28;4.70;;;2.80;;
28245;SDS011;15510;52.512;13.300;2023-03-08T13:05:03;3.73;;;3.37;;
28245;SDS011;15510;52.512;13.300;2023-03-08T13:10:28;3.73;;;3.17;;
28245;SDS011;15510;52.512;13.300;2023-03-08T13:13:05;6.13;;;3.00;;
28245;SDS011;15510;52.512;13.300;2023-03-08T13:16:05;3.87;;;3.30;;
28245;SDS011;15510;52.512;13.300;2023-03-08T13:18:47;3.60;;;3.30;;
28245;SDS011;15510;52.512;13.300;2023-03-08T13:26:49;3.87;;;3.27;;
28245;SDS011;15510;52.512;13.300;2023-03-08T13:29:36;4.07;;;3.30;;
28245;SDS011;15510;52.512;13.300;2023-03-08T13:32:04;4.00;;;3.53;;
28245;SDS011;15510;52.512;13.300;2023-03-08T13:35:00;4.03;;;3.70;;
28245;SDS011;15510;52.512;13.300;2023-03-08T13:37:28;5.17;;;3.83;;
28245;SDS011;15510;52.512;13.300;2023-03-08T13:39:55;4.73;;;4.00;;
28245;SDS011;15510;52.512;13.300;2023-03-08T13:42:22;7.00;;;4.07;;
28245;SDS011;15510;52.512;13.300;2023-03-08T13:44:52;5.37;;;3.87;;
28245;SDS011;15510;52.512;13.300;2023-03-08T13:47:32;4.57;;;4.13;;
28245;SDS011;15510;52.512;13.300;2023-03-08T13:49:59;8.70;;;4.67;;
28245;SDS011;15510;52.512;13.300;2023-03-08T13:52:27;5.50;;;4.70;;
28245;SDS011;15510;52.512;13.300;2023-03-08T13:54:57;7.17;;;4.77;;
28245;SDS011;15510;52.512;13.300;2023-03-08T13:57:30;8.83;;;4.90;;
28245;SDS011;15510;52.512;13.300;2023-03-08T14:00:01;6.00;;;4.97;;
28245;SDS011;15510;52.512;13.300;2023-03-08T14:02:47;5.90;;;4.87;;
28245;SDS011;15510;52.512;13.300;2023-03-08T14:05:16;7.37;;;4.90;;
28245;SDS011;15510;52.512;13.300;2023-03-08T14:07:54;8.33;;;5.73;;
28245;SDS011;15510;52.512;13.300;2023-03-08T14:10:22;7.63;;;4.93;;
28245;SDS011;15510;52.512;13.300;2023-03-08T14:12:54;6.17;;;4.27;;
28245;SDS011;15510;52.512;13.300;2023-03-08T14:15:20;6.47;;;4.73;;
28245;SDS011;15510;52.512;13.300;2023-03-08T14:17:46;8.00;;;5.43;;
28245;SDS011;15510;52.512;13.300;2023-03-08T14:20:19;6.83;;;5.77;;
28245;SDS011;15510;52.512;13.300;2023-03-08T14:22:46;8.77;;;5.60;;
28245;SDS011;15510;52.512;13.300;2023-03-08T14:27:53;6.40;;;4.90;;
28245;SDS011;15510;52.512;13.300;2023-03-08T14:30:21;7.30;;;5.53;;
28245;SDS011;15510;52.512;13.300;2023-03-08T14:32:53;10.43;;;6.27;;
28245;SDS011;15510;52.512;13.300;2023-03-08T14:35:39;6.13;;;5.10;;
28245;SDS011;15510;52.512;13.300;2023-03-08T14:38:16;9.93;;;5.47;;
28245;SDS011;15510;52.512;13.300;2023-03-08T14:40:48;5.93;;;4.60;;
28245;SDS011;15510;52.512;13.300;2023-03-08T14:43:18;7.70;;;5.23;;
28245;SDS011;15510;52.512;13.300;2023-03-08T14:45:55;7.07;;;4.97;;
28245;SDS011;15510;52.512;13.300;2023-03-08T14:48:29;7.13;;;5.57;;
28245;SDS011;15510;52.512;13.300;2023-03-08T14:53:53;9.30;;;6.80;;
28245;SDS011;15510;52.512;13.300;2023-03-08T14:56:24;11.63;;;6.40;;
28245;SDS011;15510;52.512;13.300;2023-03-08T14:58:52;7.90;;;6.37;;
28245;SDS011;15510;52.512;13.300;2023-03-08T15:01:28;9.67;;;7.00;;
28245;SDS011;15510;52.512;13.300;2023-03-08T15:03:56;11.77;;;6.83;;
28245;SDS011;15510;52.512;13.300;2023-03-08T15:06:23;9.70;;;6.40;;
28245;SDS011;15510;52.512;13.300;2023-03-08T15:08:55;9.20;;;6.27;;
28245;SDS011;15510;52.512;13.300;2023-03-08T15:11:22;11.33;;;7.20;;
28245;SDS011;15510;52.512;13.300;2023-03-08T15:13:48;8.10;;;6.03;;
28245;SDS011;15510;52.512;13.300;2023-03-08T15:16:14;12.23;;;6.87;;
28245;SDS011;15510;52.512;13.300;2023-03-08T15:18:41;11.17;;;6.47;;
28245;SDS011;15510;52.512;13.300;2023-03-08T15:21:09;8.83;;;6.60;;
28245;SDS011;15510;52.512;13.300;2023-03-08T15:23:39;14.37;;;6.60;;
28245;SDS011;15510;52.512;13.300;2023-03-08T15:26:06;9.97;;;6.80;;
28245;SDS011;15510;52.512;13.300;2023-03-08T15:28:32;12.33;;;6.80;;
28245;SDS011;15510;52.512;13.300;2023-03-08T15:30:58;7.83;;;6.67;;
28245;SDS011;15510;52.512;13.300;2023-03-08T15:33:23;10.00;;;6.87;;
28245;SDS011;15510;52.512;13.300;2023-03-08T15:35:49;13.67;;;7.30;;
28245;SDS011;15510;52.512;13.300;2023-03-08T15:38:16;12.00;;;7.57;;
28245;SDS011;15510;52.512;13.300;2023-03-08T15:40:43;11.40;;;7.43;;
28245;SDS011;15510;52.512;13.300;2023-03-08T15:43:08;10.53;;;7.00;;
28245;SDS011;15510;52.512;13.300;2023-03-08T15:45:35;8.37;;;6.33;;